Tres Hombres — 9LD2206 — position and weather

sailwx.info

Track history (hours):
 
Tides and Currents Weather Stations Pressure Air Temp Water Temp Dewpoint Dewpoint Depression Visibility Wind Speed Wind Dir Waves Ship Positions

Tres Hombres

Ship's website: http://www.zeilendehandelsvaart.nl/

Last reported at 2015-Aug-02 21:32 UTC. Time now 2015-Aug-02 22:26 UTC.
Position N 57°52' E 010°15'.

Length 32 m.

Type: Sailing vessel. MMSI: 667905000.

Date/timePositionNaut miles runAvg speedWind from/ knotsBaromVisibWave heightAir tempDewpointWater temp
2015-Aug-02 21:32N 57°52' E 010°15'5 4.5
2015-Aug-02 20:32N 57°56' E 010°15'37 3.6
2015-Aug-02 10:09N 57°29' E 011°03'5 6.9
2015-Aug-02 09:27N 57°26' E 011°09'4 4.8
2015-Aug-02 08:33N 57°23' E 011°15'6 5.1
2015-Aug-02 07:23N 57°18' E 011°22'35 6.0
2015-Aug-02 01:32N 56°46' E 011°50'36 6.0
2015-Aug-01 19:33N 56°15' E 012°20'4 3.0
2015-Aug-01 18:18N 56°11' E 012°21'1 2.0
2015-Aug-01 17:33N 56°10' E 012°23'1 0.5
2015-Aug-01 16:28N 56°10' E 012°24'1 0.6
2015-Aug-01 15:28N 56°10' E 012°25'1 0.5
2015-Aug-01 14:24N 56°10' E 012°26'1 1.0
2015-Aug-01 13:22N 56°10' E 012°27'1 1.5
2015-Aug-01 12:33N 56°11' E 012°29'1 1.2
2015-Aug-01 11:33N 56°10' E 012°30'3 2.9
2015-Aug-01 10:33N 56°07' E 012°29'3 2.7
2015-Aug-01 09:33N 56°09' E 012°32'3 2.9
2015-Aug-01 08:33N 56°06' E 012°33'1 1.1
2015-Aug-01 07:33N 56°05' E 012°34'1 1.0
2015-Aug-01 06:33N 56°05' E 012°36'2 2.3
2015-Aug-01 05:33N 56°03' E 012°38'4 3.7
2015-Aug-01 04:33N 55°59' E 012°38'4 3.5
2015-Aug-01 03:33N 55°56' E 012°37'3 3.4
2015-Aug-01 02:32N 55°52' E 012°36'0 0.4
2015-Aug-01 01:32N 55°52' E 012°36'0 0.0
2015-Aug-01 00:33N 55°52' E 012°36'0 0.0
2015-Jul-31 23:30N 55°52' E 012°36'0 0.0
2015-Jul-31 22:30N 55°52' E 012°36'0 0.0
2015-Jul-31 21:33N 55°52' E 012°36'0 0.0
2015-Jul-31 20:27N 55°52' E 012°36'0 0.0
2015-Jul-31 19:33N 55°52' E 012°36'0 0.0
2015-Jul-31 18:28N 55°52' E 012°36'0 0.0
2015-Jul-31 17:33N 55°52' E 012°36'0 0.0
2015-Jul-31 16:33N 55°52' E 012°36'0 0.0
2015-Jul-31 15:33N 55°52' E 012°36'0 0.0
2015-Jul-31 14:33N 55°52' E 012°36'0 0.0
2015-Jul-31 13:33N 55°52' E 012°36'0 0.0
2015-Jul-31 12:32N 55°52' E 012°36'0 0.0
2015-Jul-31 11:32N 55°52' E 012°36'0 0.0
2015-Jul-31 10:27N 55°52' E 012°36'0 0.0
2015-Jul-31 09:28N 55°52' E 012°36'0 0.0
2015-Jul-31 08:31N 55°52' E 012°36'0 0.0
2015-Jul-31 07:32N 55°52' E 012°36'0 0.0
2015-Jul-31 06:32N 55°52' E 012°36'0 0.0
2015-Jul-31 05:32N 55°52' E 012°36'0 0.0
2015-Jul-31 04:29N 55°52' E 012°36'0 0.0
2015-Jul-31 03:32N 55°52' E 012°36'0 0.0
2015-Jul-31 02:32N 55°52' E 012°36'0 0.0
2015-Jul-31 01:28N 55°52' E 012°36'0 0.0
2015-Jul-31 00:32N 55°52' E 012°36'0 0.0
2015-Jul-30 23:32N 55°52' E 012°36'0 0.0
2015-Jul-30 22:33N 55°52' E 012°36'0 0.1
2015-Jul-30 21:33N 55°52' E 012°36'3 3.5
2015-Jul-30 20:33N 55°49' E 012°40'2 2.0
2015-Jul-30 19:32N 55°51' E 012°41'1 1.2
2015-Jul-30 18:33N 55°52' E 012°42'3 2.5
2015-Jul-30 17:33N 55°49' E 012°42'1 1.1
2015-Jul-30 16:31N 55°50' E 012°44'3 3.2
2015-Jul-30 15:33N 55°47' E 012°42'3 2.4
2015-Jul-30 14:29N 55°44' E 012°41'1 0.8
2015-Jul-30 13:33N 55°44' E 012°40'0 0.4
2015-Jul-30 12:31N 55°44' E 012°39'2 2.3
2015-Jul-30 11:33N 55°42' E 012°37'1 1.0
2015-Jul-30 10:32N 55°41' E 012°36'0 0.0
2015-Jul-30 09:32N 55°41' E 012°36'0 0.0
2015-Jul-30 08:32N 55°41' E 012°36'0 0.0
2015-Jul-30 07:32N 55°41' E 012°36'0 0.0
2015-Jul-30 06:32N 55°41' E 012°36'0 0.0
2015-Jul-30 05:32N 55°41' E 012°36'0 0.0
2015-Jul-30 04:32N 55°41' E 012°36'0 0.0
2015-Jul-30 03:32N 55°41' E 012°36'0 0.0
2015-Jul-30 02:32N 55°41' E 012°36'0 0.0
2015-Jul-30 01:32N 55°41' E 012°36'0 0.0
2015-Jul-30 00:32N 55°41' E 012°36'0 0.0
2015-Jul-29 23:32N 55°41' E 012°36'0 0.0
2015-Jul-29 22:29N 55°41' E 012°36'0 0.0
2015-Jul-29 21:32N 55°41' E 012°36'0 0.0
2015-Jul-29 20:32N 55°41' E 012°36'0 0.0
2015-Jul-29 19:32N 55°41' E 012°36'0 0.0
2015-Jul-29 18:32N 55°41' E 012°36'0 0.0
2015-Jul-29 17:29N 55°41' E 012°36'0 0.0
2015-Jul-29 16:32N 55°41' E 012°36'0 0.0
2015-Jul-29 15:32N 55°41' E 012°36'0 0.0
2015-Jul-29 14:32N 55°41' E 012°36'0 0.0
2015-Jul-29 13:32N 55°41' E 012°36'0 0.0
2015-Jul-29 12:31N 55°41' E 012°36'0 0.0
2015-Jul-29 11:28N 55°41' E 012°36'0 0.0
2015-Jul-29 10:32N 55°41' E 012°36'0 0.0
2015-Jul-29 09:32N 55°41' E 012°36'0 0.0
2015-Jul-29 08:32N 55°41' E 012°36'0 0.0
2015-Jul-29 07:32N 55°41' E 012°36'0 0.0
2015-Jul-29 06:32N 55°41' E 012°36'0 0.0
2015-Jul-29 05:32N 55°41' E 012°36'0 0.0
2015-Jul-29 04:32N 55°41' E 012°36'0 0.0
2015-Jul-29 03:32N 55°41' E 012°36'0 0.0
2015-Jul-29 02:32N 55°41' E 012°36'0 0.0
2015-Jul-29 01:32N 55°41' E 012°36'0 0.0
2015-Jul-29 00:32N 55°41' E 012°36'0 0.0
2015-Jul-28 23:32N 55°41' E 012°36'0 0.0
2015-Jul-28 22:32N 55°41' E 012°36'0 0.0
2015-Jul-28 21:32N 55°41' E 012°36'0 0.0
2015-Jul-28 20:32N 55°41' E 012°36'0 0.0
2015-Jul-28 19:32N 55°41' E 012°36'0 0.0
2015-Jul-28 18:32N 55°41' E 012°36'0 0.0
2015-Jul-28 17:32N 55°41' E 012°36'0 0.0
2015-Jul-28 16:32N 55°41' E 012°36'0 0.0
2015-Jul-28 15:32N 55°41' E 012°36'0 0.0
2015-Jul-28 14:32N 55°41' E 012°36'0 0.0
2015-Jul-28 13:32N 55°41' E 012°36'0 0.0
2015-Jul-28 12:32N 55°41' E 012°36'0 0.0
2015-Jul-28 11:32N 55°41' E 012°36'0 0.0
2015-Jul-28 10:32N 55°41' E 012°36'0 0.0
2015-Jul-28 09:32N 55°41' E 012°36'0 0.0
2015-Jul-28 08:32N 55°41' E 012°36'0 0.0
2015-Jul-28 07:32N 55°41' E 012°36'0 0.0
2015-Jul-28 06:32N 55°41' E 012°36'0 0.0
2015-Jul-28 05:32N 55°41' E 012°36'0 0.0
2015-Jul-28 04:32N 55°41' E 012°36'0 0.0
2015-Jul-28 03:32N 55°41' E 012°36'0 0.0
2015-Jul-28 02:32N 55°41' E 012°36'0 0.0
2015-Jul-28 01:32N 55°41' E 012°36'0 0.0
2015-Jul-28 00:32N 55°41' E 012°36'0 0.0
2015-Jul-27 23:32N 55°41' E 012°36'0 0.0
2015-Jul-27 22:29N 55°41' E 012°36'0 0.0
2015-Jul-27 21:32N 55°41' E 012°36'0 0.0
2015-Jul-27 20:32N 55°41' E 012°36'0 0.0
2015-Jul-27 19:32N 55°41' E 012°36'0 0.0
2015-Jul-27 18:32N 55°41' E 012°36'0 0.0
2015-Jul-27 17:29N 55°41' E 012°36'0 0.0
2015-Jul-27 16:32N 55°41' E 012°36'0 0.0
2015-Jul-27 15:32N 55°41' E 012°36'0 0.0
2015-Jul-27 14:29N 55°41' E 012°36'0 0.0
2015-Jul-27 13:32N 55°41' E 012°36'0 0.0
2015-Jul-27 12:32N 55°41' E 012°36'0 0.0
2015-Jul-27 11:32N 55°41' E 012°36'0 0.0
2015-Jul-27 10:32N 55°41' E 012°36'0 0.0
2015-Jul-27 09:32N 55°41' E 012°36'0 0.0
2015-Jul-27 08:32N 55°41' E 012°36'0 0.0
2015-Jul-27 07:32N 55°41' E 012°36'0 0.0
2015-Jul-27 06:32N 55°41' E 012°36'0 0.0
2015-Jul-27 05:32N 55°41' E 012°36'0 0.0
2015-Jul-27 04:32N 55°41' E 012°36'0 0.0
2015-Jul-27 03:32N 55°41' E 012°36'0 0.0
2015-Jul-27 02:32N 55°41' E 012°36'0 0.0
2015-Jul-27 01:32N 55°41' E 012°36'0 0.0
2015-Jul-27 00:32N 55°41' E 012°36'0 0.0
2015-Jul-26 23:32N 55°41' E 012°36'0 0.0
2015-Jul-26 22:32N 55°41' E 012°36'0 0.0
2015-Jul-26 21:32N 55°41' E 012°36'0 0.0
2015-Jul-26 20:32N 55°41' E 012°36'0 0.0
2015-Jul-26 19:32N 55°41' E 012°36'0 0.0
2015-Jul-26 18:32N 55°41' E 012°36'0 0.0
2015-Jul-26 17:32N 55°41' E 012°36'0 0.0
2015-Jul-26 16:32N 55°41' E 012°36'0 0.0
2015-Jul-26 15:32N 55°41' E 012°36'0 0.0
2015-Jul-26 14:29N 55°41' E 012°36'0 0.0
2015-Jul-26 13:32N 55°41' E 012°36'0 0.0
2015-Jul-26 12:32N 55°41' E 012°36'0 0.0
2015-Jul-26 11:32N 55°41' E 012°36'0 0.0
2015-Jul-26 10:32N 55°41' E 012°36'0 0.0
2015-Jul-26 09:32N 55°41' E 012°36'0 0.0
2015-Jul-26 08:32N 55°41' E 012°36'0 0.0
2015-Jul-26 07:32N 55°41' E 012°36'0 0.0
2015-Jul-26 06:32N 55°41' E 012°36'0 0.0
2015-Jul-26 05:32N 55°41' E 012°36'0 0.0
2015-Jul-26 04:32N 55°41' E 012°36'0 0.0
2015-Jul-26 03:32N 55°41' E 012°36'0 0.0
2015-Jul-26 02:29N 55°41' E 012°36'0 0.0
2015-Jul-26 01:32N 55°41' E 012°36'0 0.0
2015-Jul-26 00:29N 55°41' E 012°36'0 0.0
2015-Jul-25 23:32N 55°41' E 012°36'0 0.0
2015-Jul-25 22:32N 55°41' E 012°36'0 0.0
2015-Jul-25 21:32N 55°41' E 012°36'0 0.0
2015-Jul-25 20:32N 55°41' E 012°36'0 0.0
2015-Jul-25 19:32N 55°41' E 012°36'1 1.4
2015-Jul-25 18:33N 55°42' E 012°38'4 3.7
2015-Jul-25 17:33N 55°39' E 012°42'4 4.2
2015-Jul-25 16:33N 55°35' E 012°43'3 3.5
2015-Jul-25 15:33N 55°31' E 012°43'4 4.4
2015-Jul-25 14:33N 55°27' E 012°42'3 2.8
2015-Jul-25 13:33N 55°24' E 012°42'3 2.7
2015-Jul-25 12:33N 55°21' E 012°42'3 2.5
2015-Jul-25 11:32N 55°19' E 012°42'4 3.7
2015-Jul-25 10:25N 55°17' E 012°49'26 6.4
2015-Jul-25 06:24N 55°06' E 013°30'20 6.7
2015-Jul-25 03:20N 55°13' E 014°04'5 5.0
2015-Jul-25 02:26N 55°13' E 014°12'5 5.5
2015-Jul-25 01:33N 55°14' E 014°20'5 4.6
2015-Jul-25 00:33N 55°14' E 014°28'4 4.5
2015-Jul-24 23:33N 55°15' E 014°36'4 4.2
2015-Jul-24 22:33N 55°17' E 014°41'3 2.9
2015-Jul-24 21:33N 55°19' E 014°45'1 1.1
2015-Jul-24 20:32N 55°19' E 014°47'1 1.0
2015-Jul-24 19:29N 55°18' E 014°48'1 1.5
2015-Jul-24 18:33N 55°17' E 014°50'2 2.3
2015-Jul-24 17:34N 55°15' E 014°53'2 2.3
2015-Jul-24 16:32N 55°14' E 014°56'1 0.8
2015-Jul-24 15:32N 55°14' E 014°57'  
Track history (hours):
 
Tides and Currents Weather Stations Pressure Air Temp Water Temp Dewpoint Dewpoint Depression Visibility Wind Speed Wind Dir Waves Ship Positions

Tres Hombres

Ship's website: http://www.zeilendehandelsvaart.nl/

Last reported at 2015-Aug-02 21:32 UTC. Time now 2015-Aug-02 22:26 UTC.
Position N 57°52' E 010°15'.

Length 32 m.

Type: Sailing vessel. MMSI: 667905000.

Date/timePositionNaut miles runAvg speedWind from/ knotsBaromVisibWave heightAir tempDewpointWater temp
2015-Aug-02 21:32N 57°52' E 010°15'5 4.5
2015-Aug-02 20:32N 57°56' E 010°15'37 3.6
2015-Aug-02 10:09N 57°29' E 011°03'5 6.9
2015-Aug-02 09:27N 57°26' E 011°09'4 4.8
2015-Aug-02 08:33N 57°23' E 011°15'6 5.1
2015-Aug-02 07:23N 57°18' E 011°22'35 6.0
2015-Aug-02 01:32N 56°46' E 011°50'36 6.0
2015-Aug-01 19:33N 56°15' E 012°20'4 3.0
2015-Aug-01 18:18N 56°11' E 012°21'1 2.0
2015-Aug-01 17:33N 56°10' E 012°23'1 0.5
2015-Aug-01 16:28N 56°10' E 012°24'1 0.6
2015-Aug-01 15:28N 56°10' E 012°25'1 0.5
2015-Aug-01 14:24N 56°10' E 012°26'1 1.0
2015-Aug-01 13:22N 56°10' E 012°27'1 1.5
2015-Aug-01 12:33N 56°11' E 012°29'1 1.2
2015-Aug-01 11:33N 56°10' E 012°30'3 2.9
2015-Aug-01 10:33N 56°07' E 012°29'3 2.7
2015-Aug-01 09:33N 56°09' E 012°32'3 2.9
2015-Aug-01 08:33N 56°06' E 012°33'1 1.1
2015-Aug-01 07:33N 56°05' E 012°34'1 1.0
2015-Aug-01 06:33N 56°05' E 012°36'2 2.3
2015-Aug-01 05:33N 56°03' E 012°38'4 3.7
2015-Aug-01 04:33N 55°59' E 012°38'4 3.5
2015-Aug-01 03:33N 55°56' E 012°37'3 3.4
2015-Aug-01 02:32N 55°52' E 012°36'0 0.4
2015-Aug-01 01:32N 55°52' E 012°36'0 0.0
2015-Aug-01 00:33N 55°52' E 012°36'0 0.0
2015-Jul-31 23:30N 55°52' E 012°36'0 0.0
2015-Jul-31 22:30N 55°52' E 012°36'0 0.0
2015-Jul-31 21:33N 55°52' E 012°36'0 0.0
2015-Jul-31 20:27N 55°52' E 012°36'0 0.0
2015-Jul-31 19:33N 55°52' E 012°36'0 0.0
2015-Jul-31 18:28N 55°52' E 012°36'0 0.0
2015-Jul-31 17:33N 55°52' E 012°36'0 0.0
2015-Jul-31 16:33N 55°52' E 012°36'0 0.0
2015-Jul-31 15:33N 55°52' E 012°36'0 0.0
2015-Jul-31 14:33N 55°52' E 012°36'0 0.0
2015-Jul-31 13:33N 55°52' E 012°36'0 0.0
2015-Jul-31 12:32N 55°52' E 012°36'0 0.0
2015-Jul-31 11:32N 55°52' E 012°36'0 0.0
2015-Jul-31 10:27N 55°52' E 012°36'0 0.0
2015-Jul-31 09:28N 55°52' E 012°36'0 0.0
2015-Jul-31 08:31N 55°52' E 012°36'0 0.0
2015-Jul-31 07:32N 55°52' E 012°36'0 0.0
2015-Jul-31 06:32N 55°52' E 012°36'0 0.0
2015-Jul-31 05:32N 55°52' E 012°36'0 0.0
2015-Jul-31 04:29N 55°52' E 012°36'0 0.0
2015-Jul-31 03:32N 55°52' E 012°36'0 0.0
2015-Jul-31 02:32N 55°52' E 012°36'0 0.0
2015-Jul-31 01:28N 55°52' E 012°36'0 0.0
2015-Jul-31 00:32N 55°52' E 012°36'0 0.0
2015-Jul-30 23:32N 55°52' E 012°36'0 0.0
2015-Jul-30 22:33N 55°52' E 012°36'0 0.1
2015-Jul-30 21:33N 55°52' E 012°36'3 3.5
2015-Jul-30 20:33N 55°49' E 012°40'2 2.0
2015-Jul-30 19:32N 55°51' E 012°41'1 1.2
2015-Jul-30 18:33N 55°52' E 012°42'3 2.5
2015-Jul-30 17:33N 55°49' E 012°42'1 1.1
2015-Jul-30 16:31N 55°50' E 012°44'3 3.2
2015-Jul-30 15:33N 55°47' E 012°42'3 2.4
2015-Jul-30 14:29N 55°44' E 012°41'1 0.8
2015-Jul-30 13:33N 55°44' E 012°40'0 0.4
2015-Jul-30 12:31N 55°44' E 012°39'2 2.3
2015-Jul-30 11:33N 55°42' E 012°37'1 1.0
2015-Jul-30 10:32N 55°41' E 012°36'0 0.0
2015-Jul-30 09:32N 55°41' E 012°36'0 0.0
2015-Jul-30 08:32N 55°41' E 012°36'0 0.0
2015-Jul-30 07:32N 55°41' E 012°36'0 0.0
2015-Jul-30 06:32N 55°41' E 012°36'0 0.0
2015-Jul-30 05:32N 55°41' E 012°36'0 0.0
2015-Jul-30 04:32N 55°41' E 012°36'0 0.0
2015-Jul-30 03:32N 55°41' E 012°36'0 0.0
2015-Jul-30 02:32N 55°41' E 012°36'0 0.0
2015-Jul-30 01:32N 55°41' E 012°36'0 0.0
2015-Jul-30 00:32N 55°41' E 012°36'0 0.0
2015-Jul-29 23:32N 55°41' E 012°36'0 0.0
2015-Jul-29 22:29N 55°41' E 012°36'0 0.0
2015-Jul-29 21:32N 55°41' E 012°36'0 0.0
2015-Jul-29 20:32N 55°41' E 012°36'0 0.0
2015-Jul-29 19:32N 55°41' E 012°36'0 0.0
2015-Jul-29 18:32N 55°41' E 012°36'0 0.0
2015-Jul-29 17:29N 55°41' E 012°36'0 0.0
2015-Jul-29 16:32N 55°41' E 012°36'0 0.0
2015-Jul-29 15:32N 55°41' E 012°36'0 0.0
2015-Jul-29 14:32N 55°41' E 012°36'0 0.0
2015-Jul-29 13:32N 55°41' E 012°36'0 0.0
2015-Jul-29 12:31N 55°41' E 012°36'0 0.0
2015-Jul-29 11:28N 55°41' E 012°36'0 0.0
2015-Jul-29 10:32N 55°41' E 012°36'0 0.0
2015-Jul-29 09:32N 55°41' E 012°36'0 0.0
2015-Jul-29 08:32N 55°41' E 012°36'0 0.0
2015-Jul-29 07:32N 55°41' E 012°36'0 0.0
2015-Jul-29 06:32N 55°41' E 012°36'0 0.0
2015-Jul-29 05:32N 55°41' E 012°36'0 0.0
2015-Jul-29 04:32N 55°41' E 012°36'0 0.0
2015-Jul-29 03:32N 55°41' E 012°36'0 0.0
2015-Jul-29 02:32N 55°41' E 012°36'0 0.0
2015-Jul-29 01:32N 55°41' E 012°36'0 0.0
2015-Jul-29 00:32N 55°41' E 012°36'0 0.0
2015-Jul-28 23:32N 55°41' E 012°36'0 0.0
2015-Jul-28 22:32N 55°41' E 012°36'0 0.0
2015-Jul-28 21:32N 55°41' E 012°36'0 0.0
2015-Jul-28 20:32N 55°41' E 012°36'0 0.0
2015-Jul-28 19:32N 55°41' E 012°36'0 0.0
2015-Jul-28 18:32N 55°41' E 012°36'0 0.0
2015-Jul-28 17:32N 55°41' E 012°36'0 0.0
2015-Jul-28 16:32N 55°41' E 012°36'0 0.0
2015-Jul-28 15:32N 55°41' E 012°36'0 0.0
2015-Jul-28 14:32N 55°41' E 012°36'0 0.0
2015-Jul-28 13:32N 55°41' E 012°36'0 0.0
2015-Jul-28 12:32N 55°41' E 012°36'0 0.0
2015-Jul-28 11:32N 55°41' E 012°36'0 0.0
2015-Jul-28 10:32N 55°41' E 012°36'0 0.0
2015-Jul-28 09:32N 55°41' E 012°36'0 0.0
2015-Jul-28 08:32N 55°41' E 012°36'0 0.0
2015-Jul-28 07:32N 55°41' E 012°36'0 0.0
2015-Jul-28 06:32N 55°41' E 012°36'0 0.0
2015-Jul-28 05:32N 55°41' E 012°36'0 0.0
2015-Jul-28 04:32N 55°41' E 012°36'0 0.0
2015-Jul-28 03:32N 55°41' E 012°36'0 0.0
2015-Jul-28 02:32N 55°41' E 012°36'0 0.0
2015-Jul-28 01:32N 55°41' E 012°36'0 0.0
2015-Jul-28 00:32N 55°41' E 012°36'0 0.0
2015-Jul-27 23:32N 55°41' E 012°36'0 0.0
2015-Jul-27 22:29N 55°41' E 012°36'0 0.0
2015-Jul-27 21:32N 55°41' E 012°36'0 0.0
2015-Jul-27 20:32N 55°41' E 012°36'0 0.0
2015-Jul-27 19:32N 55°41' E 012°36'0 0.0
2015-Jul-27 18:32N 55°41' E 012°36'0 0.0
2015-Jul-27 17:29N 55°41' E 012°36'0 0.0
2015-Jul-27 16:32N 55°41' E 012°36'0 0.0
2015-Jul-27 15:32N 55°41' E 012°36'0 0.0
2015-Jul-27 14:29N 55°41' E 012°36'0 0.0
2015-Jul-27 13:32N 55°41' E 012°36'0 0.0
2015-Jul-27 12:32N 55°41' E 012°36'0 0.0
2015-Jul-27 11:32N 55°41' E 012°36'0 0.0
2015-Jul-27 10:32N 55°41' E 012°36'0 0.0
2015-Jul-27 09:32N 55°41' E 012°36'0 0.0
2015-Jul-27 08:32N 55°41' E 012°36'0 0.0
2015-Jul-27 07:32N 55°41' E 012°36'0 0.0
2015-Jul-27 06:32N 55°41' E 012°36'0 0.0
2015-Jul-27 05:32N 55°41' E 012°36'0 0.0
2015-Jul-27 04:32N 55°41' E 012°36'0 0.0
2015-Jul-27 03:32N 55°41' E 012°36'0 0.0
2015-Jul-27 02:32N 55°41' E 012°36'0 0.0
2015-Jul-27 01:32N 55°41' E 012°36'0 0.0
2015-Jul-27 00:32N 55°41' E 012°36'0 0.0
2015-Jul-26 23:32N 55°41' E 012°36'0 0.0
2015-Jul-26 22:32N 55°41' E 012°36'0 0.0
2015-Jul-26 21:32N 55°41' E 012°36'0 0.0
2015-Jul-26 20:32N 55°41' E 012°36'0 0.0
2015-Jul-26 19:32N 55°41' E 012°36'0 0.0
2015-Jul-26 18:32N 55°41' E 012°36'0 0.0
2015-Jul-26 17:32N 55°41' E 012°36'0 0.0
2015-Jul-26 16:32N 55°41' E 012°36'0 0.0
2015-Jul-26 15:32N 55°41' E 012°36'0 0.0
2015-Jul-26 14:29N 55°41' E 012°36'0 0.0
2015-Jul-26 13:32N 55°41' E 012°36'0 0.0
2015-Jul-26 12:32N 55°41' E 012°36'0 0.0
2015-Jul-26 11:32N 55°41' E 012°36'0 0.0
2015-Jul-26 10:32N 55°41' E 012°36'0 0.0
2015-Jul-26 09:32N 55°41' E 012°36'0 0.0
2015-Jul-26 08:32N 55°41' E 012°36'0 0.0
2015-Jul-26 07:32N 55°41' E 012°36'0 0.0
2015-Jul-26 06:32N 55°41' E 012°36'0 0.0
2015-Jul-26 05:32N 55°41' E 012°36'0 0.0
2015-Jul-26 04:32N 55°41' E 012°36'0 0.0
2015-Jul-26 03:32N 55°41' E 012°36'0 0.0
2015-Jul-26 02:29N 55°41' E 012°36'0 0.0
2015-Jul-26 01:32N 55°41' E 012°36'0 0.0
2015-Jul-26 00:29N 55°41' E 012°36'0 0.0
2015-Jul-25 23:32N 55°41' E 012°36'0 0.0
2015-Jul-25 22:32N 55°41' E 012°36'0 0.0
2015-Jul-25 21:32N 55°41' E 012°36'0 0.0
2015-Jul-25 20:32N 55°41' E 012°36'0 0.0
2015-Jul-25 19:32N 55°41' E 012°36'1 1.4
2015-Jul-25 18:33N 55°42' E 012°38'4 3.7
2015-Jul-25 17:33N 55°39' E 012°42'4 4.2
2015-Jul-25 16:33N 55°35' E 012°43'3 3.5
2015-Jul-25 15:33N 55°31' E 012°43'4 4.4
2015-Jul-25 14:33N 55°27' E 012°42'3 2.8
2015-Jul-25 13:33N 55°24' E 012°42'3 2.7
2015-Jul-25 12:33N 55°21' E 012°42'3 2.5
2015-Jul-25 11:32N 55°19' E 012°42'4 3.7
2015-Jul-25 10:25N 55°17' E 012°49'26 6.4
2015-Jul-25 06:24N 55°06' E 013°30'20 6.7
2015-Jul-25 03:20N 55°13' E 014°04'5 5.0
2015-Jul-25 02:26N 55°13' E 014°12'5 5.5
2015-Jul-25 01:33N 55°14' E 014°20'5 4.6
2015-Jul-25 00:33N 55°14' E 014°28'4 4.5
2015-Jul-24 23:33N 55°15' E 014°36'4 4.2
2015-Jul-24 22:33N 55°17' E 014°41'3 2.9
2015-Jul-24 21:33N 55°19' E 014°45'1 1.1
2015-Jul-24 20:32N 55°19' E 014°47'1 1.0
2015-Jul-24 19:29N 55°18' E 014°48'1 1.5
2015-Jul-24 18:33N 55°17' E 014°50'2 2.3
2015-Jul-24 17:34N 55°15' E 014°53'2 2.3
2015-Jul-24 16:32N 55°14' E 014°56'1 0.8
2015-Jul-24 15:32N 55°14' E 014°57'  

Dump ship's entire track history